createdAt,value
2023-04-28T00:00:48.809Z,49.06
2023-04-28T00:03:16.022Z,49.25
2023-04-28T00:05:43.083Z,49.15
2023-04-28T00:08:10.706Z,49.03
2023-04-28T00:10:37.630Z,48.90
2023-04-28T00:13:04.602Z,49.44
2023-04-28T00:15:31.502Z,49.37
2023-04-28T00:17:59.823Z,49.46
2023-04-28T00:20:26.876Z,49.23
2023-04-28T00:22:53.784Z,49.56
2023-04-28T00:25:20.841Z,49.29
2023-04-28T00:27:47.733Z,48.97
2023-04-28T00:30:15.019Z,48.71
2023-04-28T00:32:42.321Z,49.16
2023-04-28T00:35:10.833Z,48.96
2023-04-28T00:37:38.635Z,48.73
2023-04-28T00:40:07.542Z,48.62
2023-04-28T00:42:34.553Z,48.93
2023-04-28T00:45:05.874Z,49.18
2023-04-28T00:47:33.498Z,49.39
2023-04-28T00:50:13.504Z,49.08
2023-04-28T00:52:43.690Z,49.35
2023-04-28T00:55:10.734Z,49.29
2023-04-28T00:57:37.751Z,49.26
2023-04-28T01:00:06.490Z,49.01
2023-04-28T01:02:33.835Z,49.38
2023-04-28T01:05:02.166Z,49.50
2023-04-28T01:07:29.787Z,49.03
2023-04-28T01:09:58.035Z,48.83
2023-04-28T01:12:25.212Z,48.96
2023-04-28T01:14:52.589Z,49.29
2023-04-28T01:17:19.713Z,48.88
2023-04-28T01:19:46.604Z,48.83
2023-04-28T01:22:16.697Z,48.59
2023-04-28T01:24:45.095Z,48.77
2023-04-28T01:27:12.004Z,48.90
2023-04-28T01:29:38.907Z,48.77
2023-04-28T01:32:05.891Z,49.12
2023-04-28T01:34:32.810Z,48.71
2023-04-28T01:36:59.734Z,49.04
2023-04-28T01:39:26.754Z,48.81
2023-04-28T01:41:54.989Z,48.54
2023-04-28T01:44:21.916Z,48.43
2023-04-28T01:46:48.898Z,48.26
2023-04-28T01:49:16.077Z,48.09
2023-04-28T01:51:43.230Z,48.30
2023-04-28T01:54:10.670Z,48.88
2023-04-28T01:56:37.783Z,48.71
2023-04-28T01:59:06.109Z,48.53
2023-04-28T02:01:33.196Z,48.71
2023-04-28T02:04:00.229Z,48.73
2023-04-28T02:06:27.880Z,48.38
2023-04-28T02:08:54.915Z,48.79
2023-04-28T02:11:21.861Z,48.74
2023-04-28T02:13:48.835Z,48.98
2023-04-28T02:16:17.059Z,48.53
2023-04-28T02:18:44.093Z,48.86
2023-04-28T02:21:12.477Z,48.82
2023-04-28T02:23:39.917Z,49.17
2023-04-28T02:26:07.330Z,49.25
2023-04-28T02:28:34.339Z,49.05
2023-04-28T02:31:06.304Z,48.83
2023-04-28T02:33:35.048Z,48.58
2023-04-28T02:36:03.815Z,48.96
2023-04-28T02:38:31.161Z,48.44
2023-04-28T02:40:59.512Z,48.74
2023-04-28T02:43:26.818Z,48.38
2023-04-28T02:45:54.676Z,48.23
2023-04-28T02:48:21.749Z,48.68
2023-04-28T02:50:50.634Z,48.57
2023-04-28T02:53:17.567Z,48.32
2023-04-28T02:55:44.672Z,48.04
2023-04-28T02:58:11.864Z,47.76
2023-04-28T03:00:38.841Z,47.79
2023-04-28T03:03:05.886Z,47.55
2023-04-28T03:05:33.010Z,47.93
2023-04-28T03:08:01.591Z,48.30
2023-04-28T03:10:28.587Z,47.63
2023-04-28T03:12:55.634Z,48.21
2023-04-28T03:15:22.583Z,48.09
2023-04-28T03:17:49.535Z,48.49
2023-04-28T03:20:16.509Z,48.42
2023-04-28T03:22:43.411Z,48.00
2023-04-28T03:25:11.662Z,48.33
2023-04-28T03:27:38.584Z,47.94
2023-04-28T03:30:07.277Z,48.08
2023-04-28T03:32:34.327Z,48.11
2023-04-28T03:35:01.363Z,47.93
2023-04-28T03:37:28.459Z,47.53
2023-04-28T03:39:55.384Z,47.69
2023-04-28T03:42:23.613Z,47.96
2023-04-28T03:44:50.691Z,47.62
2023-04-28T03:47:17.618Z,47.27
2023-04-28T03:49:44.525Z,47.09
2023-04-28T03:52:11.680Z,47.16
2023-04-28T03:54:38.738Z,46.96
2023-04-28T03:57:05.677Z,46.99
2023-04-28T03:59:33.953Z,47.07
2023-04-28T04:02:00.904Z,46.97
2023-04-28T04:04:28.260Z,47.03
2023-04-28T04:06:56.008Z,46.67
2023-04-28T04:09:23.199Z,46.63
2023-04-28T04:11:50.304Z,47.01
2023-04-28T04:14:17.574Z,46.60
2023-04-28T04:16:47.852Z,47.17
2023-04-28T04:19:14.776Z,46.68
2023-04-28T04:21:41.778Z,46.38
2023-04-28T04:24:08.882Z,46.62
2023-04-28T04:26:35.850Z,46.52
2023-04-28T04:29:02.777Z,46.43
2023-04-28T04:31:29.828Z,46.45
2023-04-28T04:33:58.119Z,45.77
2023-04-28T04:36:25.225Z,46.08
2023-04-28T04:38:54.301Z,46.11
2023-04-28T04:41:21.909Z,45.70
2023-04-28T04:43:48.904Z,46.14
2023-04-28T04:46:15.986Z,45.59
2023-04-28T04:48:43.211Z,45.66
2023-04-28T04:51:11.634Z,45.40
2023-04-28T04:53:38.732Z,45.35
2023-04-28T04:56:06.928Z,45.17
2023-04-28T04:58:33.883Z,45.27
2023-04-28T05:01:00.825Z,45.24
2023-04-28T05:03:27.894Z,45.08
2023-04-28T05:05:54.981Z,45.11
2023-04-28T05:08:23.333Z,44.85
2023-04-28T05:10:50.329Z,44.91
2023-04-28T05:13:17.263Z,44.84
2023-04-28T05:15:44.231Z,44.54
2023-04-28T05:18:11.468Z,44.45
2023-04-28T05:20:38.592Z,44.21
2023-04-28T05:23:06.680Z,44.46
2023-04-28T05:25:35.100Z,44.29
2023-04-28T05:28:07.594Z,44.04
2023-04-28T05:30:34.853Z,43.74
2023-04-28T05:33:01.892Z,43.30
2023-04-28T05:35:29.003Z,43.61
2023-04-28T05:37:55.969Z,43.29
2023-04-28T05:40:23.048Z,42.67
2023-04-28T05:42:51.318Z,42.75
2023-04-28T05:45:18.551Z,42.72
2023-04-28T05:47:45.759Z,42.61
2023-04-28T05:50:12.865Z,42.41
2023-04-28T05:52:39.765Z,42.21
2023-04-28T05:55:08.154Z,41.77
2023-04-28T05:57:49.231Z,41.59
2023-04-28T06:00:18.857Z,41.39
2023-04-28T06:02:45.973Z,41.05
2023-04-28T06:05:13.362Z,40.94
2023-04-28T06:07:40.612Z,40.66
2023-04-28T06:10:09.897Z,40.41
2023-04-28T06:12:37.379Z,40.30
2023-04-28T06:15:06.522Z,39.79
2023-04-28T06:17:34.881Z,39.19
2023-04-28T06:20:01.903Z,39.60
2023-04-28T06:22:28.808Z,39.48
2023-04-28T06:24:55.834Z,39.29
2023-04-28T06:27:22.712Z,39.07
2023-04-28T06:29:49.640Z,39.32
2023-04-28T06:32:16.934Z,39.13
2023-04-28T06:34:45.321Z,38.89
2023-04-28T06:37:12.262Z,38.78
2023-04-28T06:39:39.203Z,38.89
2023-04-28T06:42:06.270Z,38.58
2023-04-28T06:44:34.816Z,38.37
2023-04-28T06:47:03.340Z,38.33
2023-04-28T06:49:30.466Z,38.16
2023-04-28T06:51:58.939Z,38.06
2023-04-28T06:54:25.975Z,37.47
2023-04-28T06:56:52.848Z,37.29
2023-04-28T06:59:19.762Z,36.64
2023-04-28T07:01:46.668Z,36.82
2023-04-28T07:04:13.933Z,36.62
2023-04-28T07:06:41.267Z,36.07
2023-04-28T07:09:09.692Z,36.18
2023-04-28T07:11:37.040Z,35.83
2023-04-28T07:14:03.980Z,35.33
2023-04-28T07:16:31.014Z,35.35
2023-04-28T07:18:58.075Z,35.32
2023-04-28T07:21:25.047Z,35.21
2023-04-28T07:23:51.999Z,35.24
2023-04-28T07:26:20.542Z,34.22
2023-04-28T07:28:48.081Z,34.83
2023-04-28T07:31:15.154Z,34.72
2023-04-28T07:33:42.089Z,34.85
2023-04-28T07:36:09.480Z,34.45
2023-04-28T07:38:36.646Z,34.30
2023-04-28T07:41:05.713Z,34.26
2023-04-28T07:43:35.770Z,34.24
2023-04-28T07:46:02.687Z,34.52
2023-04-28T07:48:29.834Z,34.47
2023-04-28T07:50:56.796Z,34.43
2023-04-28T07:53:23.994Z,35.05
2023-04-28T07:55:51.282Z,35.11
2023-04-28T07:58:18.475Z,35.05
2023-04-28T08:00:46.791Z,34.89
2023-04-28T08:03:13.958Z,34.71
2023-04-28T08:05:42.921Z,34.74
2023-04-28T08:08:09.983Z,34.52
2023-04-28T08:10:38.017Z,34.32
2023-04-28T08:13:04.942Z,34.08
2023-04-28T08:15:32.086Z,33.80
2023-04-28T08:18:00.527Z,33.57
2023-04-28T08:20:27.521Z,33.86
2023-04-28T08:22:54.537Z,33.65
2023-04-28T08:25:22.302Z,33.77
2023-04-28T08:27:49.521Z,33.72
2023-04-28T08:30:16.531Z,33.16
2023-04-28T08:32:44.242Z,33.63
2023-04-28T08:35:12.845Z,34.20
2023-04-28T08:37:39.821Z,34.25
2023-04-28T08:40:11.795Z,34.43
2023-04-28T08:42:39.774Z,34.34
2023-04-28T08:45:12.795Z,34.18
2023-04-28T08:47:45.663Z,33.84
2023-04-28T08:50:14.921Z,33.87
2023-04-28T08:52:45.207Z,33.45
2023-04-28T08:55:13.256Z,33.91
2023-04-28T08:57:44.975Z,34.00
2023-04-28T09:00:13.179Z,33.63
2023-04-28T09:02:42.646Z,33.92
2023-04-28T09:05:12.220Z,33.94
2023-04-28T09:07:43.586Z,34.08
2023-04-28T09:10:21.072Z,33.77
2023-04-28T09:12:51.677Z,33.68
2023-04-28T09:15:33.212Z,32.60
2023-04-28T09:18:02.538Z,33.23
2023-04-28T09:20:32.929Z,33.34
2023-04-28T09:23:16.388Z,33.58
2023-04-28T09:25:59.092Z,33.92
2023-04-28T09:28:26.271Z,33.96
2023-04-28T09:30:53.392Z,33.78
2023-04-28T09:33:21.832Z,33.99
2023-04-28T09:35:49.775Z,34.08
2023-04-28T09:38:20.557Z,33.87
2023-04-28T09:40:53.173Z,34.19
2023-04-28T09:43:28.702Z,34.09
2023-04-28T09:45:57.431Z,34.33
2023-04-28T09:48:31.065Z,34.30
2023-04-28T09:50:59.324Z,34.25
2023-04-28T09:53:28.824Z,34.20
2023-04-28T09:55:58.687Z,34.58
2023-04-28T09:58:27.570Z,35.00
2023-04-28T10:00:57.839Z,35.62
2023-04-28T10:03:29.335Z,36.12
2023-04-28T10:05:58.717Z,36.02
2023-04-28T10:08:27.890Z,36.49
2023-04-28T10:10:56.689Z,35.89
2023-04-28T10:13:25.055Z,35.84
2023-04-28T10:15:55.587Z,34.92
2023-04-28T10:18:24.379Z,35.20
2023-04-28T10:20:58.386Z,34.27
2023-04-28T10:23:51.198Z,33.80
2023-04-28T10:26:20.003Z,33.47
2023-04-28T10:28:49.178Z,34.31
2023-04-28T10:31:18.652Z,34.35
2023-04-28T10:33:48.348Z,35.07
2023-04-28T10:36:50.925Z,34.25
2023-04-28T10:39:19.465Z,34.64
2023-04-28T10:41:50.539Z,34.53
2023-04-28T10:44:42.839Z,33.92
2023-04-28T10:47:10.852Z,34.48
2023-04-28T10:50:10.414Z,35.14
2023-04-28T10:52:50.519Z,34.74
2023-04-28T10:55:32.646Z,35.41
2023-04-28T10:58:32.607Z,35.56
2023-04-28T11:01:25.487Z,35.81
2023-04-28T11:04:00.470Z,35.85
2023-04-28T11:06:30.084Z,36.39
2023-04-28T11:09:03.568Z,36.31
2023-04-28T11:11:36.351Z,36.29
2023-04-28T11:14:35.860Z,35.92
2023-04-28T11:17:05.407Z,36.44
2023-04-28T11:19:34.787Z,36.04
2023-04-28T11:22:04.647Z,36.42
2023-04-28T11:24:32.155Z,36.21
2023-04-28T11:27:02.192Z,36.33
2023-04-28T11:29:34.015Z,36.07
2023-04-28T11:32:01.527Z,35.83
2023-04-28T11:34:28.684Z,36.04
2023-04-28T11:36:56.334Z,35.90
2023-04-28T11:39:28.718Z,36.83
2023-04-28T11:41:57.026Z,36.04
2023-04-28T11:44:29.278Z,36.00
2023-04-28T11:47:00.676Z,36.36
2023-04-28T11:49:31.294Z,35.86
2023-04-28T11:52:05.657Z,36.02
2023-04-28T11:54:33.524Z,36.31
2023-04-28T11:57:03.946Z,36.25
2023-04-28T11:59:34.304Z,36.06
2023-04-28T12:02:03.965Z,36.09
2023-04-28T12:04:35.761Z,35.90
2023-04-28T12:07:07.768Z,35.91
2023-04-28T12:09:44.775Z,36.28
2023-04-28T12:12:15.475Z,36.62
2023-04-28T12:15:07.979Z,36.83
2023-04-28T12:17:38.932Z,37.39
2023-04-28T12:20:09.980Z,37.46
2023-04-28T12:22:48.763Z,37.26
2023-04-28T12:25:19.171Z,37.07
2023-04-28T12:28:02.524Z,37.10
2023-04-28T12:30:33.632Z,37.24
2023-04-28T12:33:01.401Z,37.18
2023-04-28T12:35:29.689Z,37.20
2023-04-28T12:37:58.694Z,37.65
2023-04-28T12:40:26.261Z,37.20
2023-04-28T12:42:53.666Z,37.32
2023-04-28T12:45:20.719Z,37.48
2023-04-28T12:47:49.145Z,37.35
2023-04-28T12:50:16.200Z,36.82
2023-04-28T12:52:43.405Z,37.00
2023-04-28T12:55:11.005Z,37.01
2023-04-28T12:57:39.695Z,36.77
2023-04-28T13:00:08.739Z,37.12
2023-04-28T13:02:36.356Z,36.82
2023-04-28T13:05:06.083Z,36.93
2023-04-28T13:07:34.386Z,37.01
2023-04-28T13:10:01.468Z,36.92
2023-04-28T13:12:28.398Z,36.28
2023-04-28T13:14:55.282Z,35.71
2023-04-28T13:17:22.973Z,35.42
2023-04-28T13:19:49.935Z,35.39
2023-04-28T13:22:18.331Z,35.62
2023-04-28T13:24:46.030Z,35.41
2023-04-28T13:27:13.223Z,34.57
2023-04-28T13:29:40.155Z,34.36
2023-04-28T13:32:07.341Z,34.98
2023-04-28T13:34:34.579Z,34.76
2023-04-28T13:37:01.515Z,35.15
2023-04-28T13:39:29.844Z,35.29
2023-04-28T13:41:56.773Z,34.69
2023-04-28T13:44:24.074Z,34.60
2023-04-28T13:46:52.409Z,34.28
2023-04-28T13:49:20.023Z,33.08
2023-04-28T13:51:47.332Z,33.01
2023-04-28T13:54:14.661Z,32.76
2023-04-28T13:56:43.662Z,32.73
2023-04-28T13:59:10.702Z,32.67
2023-04-28T14:01:37.766Z,32.94
2023-04-28T14:04:04.918Z,33.32
2023-04-28T14:06:33.643Z,33.54
2023-04-28T14:09:02.797Z,33.36
2023-04-28T14:11:29.939Z,34.27
2023-04-28T14:13:58.782Z,33.72
2023-04-28T14:16:37.451Z,33.67
2023-04-28T14:19:09.295Z,33.15
2023-04-28T14:21:38.054Z,32.78
2023-04-28T14:24:05.949Z,32.78
2023-04-28T14:26:33.181Z,32.64
2023-04-28T14:29:01.538Z,33.09
2023-04-28T14:31:28.924Z,33.25
2023-04-28T14:33:55.923Z,33.60
2023-04-28T14:36:22.921Z,33.29
2023-04-28T14:38:49.965Z,33.18
2023-04-28T14:41:16.953Z,32.87
2023-04-28T14:43:44.806Z,33.58
2023-04-28T14:46:13.376Z,33.31
2023-04-28T14:48:40.667Z,32.80
2023-04-28T14:51:08.161Z,32.88
2023-04-28T14:53:35.297Z,33.25
2023-04-28T14:56:17.323Z,34.09
2023-04-28T14:58:45.936Z,34.14
2023-04-28T15:01:14.598Z,34.21
2023-04-28T15:03:41.854Z,34.74
2023-04-28T15:06:09.426Z,35.30
2023-04-28T15:08:37.158Z,35.45
2023-04-28T15:11:04.316Z,36.18
2023-04-28T15:13:32.149Z,35.99
2023-04-28T15:16:00.299Z,36.70
2023-04-28T15:18:28.768Z,37.08
2023-04-28T15:20:56.107Z,36.67
2023-04-28T15:23:23.080Z,37.19
2023-04-28T15:25:53.365Z,37.36
2023-04-28T15:28:20.410Z,37.14
2023-04-28T15:30:47.382Z,37.43
2023-04-28T15:33:17.433Z,37.00
2023-04-28T15:35:46.736Z,36.88
2023-04-28T15:38:14.179Z,37.30
2023-04-28T15:40:42.631Z,36.87
2023-04-28T15:43:10.084Z,38.06
2023-04-28T15:45:38.902Z,38.22
2023-04-28T15:48:06.719Z,39.32
2023-04-28T15:50:35.892Z,41.14
2023-04-28T15:53:04.223Z,42.54
2023-04-28T15:55:31.388Z,43.84
2023-04-28T15:57:58.524Z,45.30
2023-04-28T16:00:25.498Z,46.03
2023-04-28T16:02:52.943Z,47.28
2023-04-28T16:05:20.398Z,47.73
2023-04-28T16:07:48.420Z,48.54
2023-04-28T16:10:17.200Z,48.37
2023-04-28T16:12:44.371Z,48.38
2023-04-28T16:15:13.921Z,48.54
2023-04-28T16:17:42.053Z,48.80
2023-04-28T16:20:11.558Z,49.33
2023-04-28T16:22:40.655Z,49.43
2023-04-28T16:25:09.170Z,50.46
2023-04-28T16:27:38.950Z,50.78
2023-04-28T16:30:08.781Z,50.74
2023-04-28T16:32:40.605Z,51.90
2023-04-28T16:35:15.123Z,52.04
2023-04-28T16:37:43.479Z,51.80
2023-04-28T16:40:12.342Z,51.86
2023-04-28T16:42:41.892Z,52.21
2023-04-28T16:45:10.800Z,52.41
2023-04-28T16:47:38.588Z,53.13
2023-04-28T16:50:09.173Z,53.62
2023-04-28T16:52:36.087Z,53.91
2023-04-28T16:55:04.159Z,53.53
2023-04-28T16:57:31.278Z,53.76
2023-04-28T16:59:59.736Z,53.74
2023-04-28T17:02:28.620Z,53.55
2023-04-28T17:04:55.800Z,53.67
2023-04-28T17:07:24.991Z,53.68
2023-04-28T17:09:53.099Z,53.66
2023-04-28T17:12:20.908Z,53.48
2023-04-28T17:14:50.541Z,53.44
2023-04-28T17:17:22.419Z,53.40
2023-04-28T17:19:49.653Z,53.51
2023-04-28T17:22:17.028Z,53.55
2023-04-28T17:24:45.308Z,53.53
2023-04-28T17:27:12.231Z,53.91
2023-04-28T17:29:39.182Z,54.05
2023-04-28T17:32:06.183Z,54.10
2023-04-28T17:34:34.445Z,54.08
2023-04-28T17:37:01.378Z,54.44
2023-04-28T17:39:28.253Z,54.43
2023-04-28T17:41:57.528Z,54.67
2023-04-28T17:44:24.652Z,54.46
2023-04-28T17:46:52.616Z,54.72
2023-04-28T17:49:19.588Z,54.79
2023-04-28T17:51:47.859Z,54.78
2023-04-28T17:54:14.813Z,54.76
2023-04-28T17:56:41.687Z,54.73
2023-04-28T17:59:08.931Z,54.84
2023-04-28T18:01:36.152Z,54.92
2023-04-28T18:04:03.249Z,55.05
2023-04-28T18:06:30.227Z,55.08
2023-04-28T18:08:58.428Z,54.87
2023-04-28T18:11:27.797Z,55.00
2023-04-28T18:13:54.773Z,54.90
2023-04-28T18:16:21.769Z,55.25
2023-04-28T18:18:49.290Z,55.09
2023-04-28T18:21:16.604Z,55.49
2023-04-28T18:23:43.585Z,55.66
2023-04-28T18:26:15.346Z,55.78
2023-04-28T18:28:46.073Z,55.90
2023-04-28T18:31:12.989Z,56.16
2023-04-28T18:33:39.920Z,56.30
2023-04-28T18:36:07.587Z,56.65
2023-04-28T18:38:36.288Z,57.06
2023-04-28T18:41:14.126Z,56.89
2023-04-28T18:43:42.285Z,57.10
2023-04-28T18:46:10.324Z,57.28
2023-04-28T18:48:37.785Z,57.41
2023-04-28T18:51:05.429Z,57.39
2023-04-28T18:53:33.416Z,57.80
2023-04-28T18:56:00.405Z,57.59
2023-04-28T18:58:29.143Z,57.76
2023-04-28T19:00:56.487Z,58.21
2023-04-28T19:03:24.362Z,58.07
2023-04-28T19:05:51.446Z,58.41
2023-04-28T19:08:18.535Z,58.55
2023-04-28T19:10:45.441Z,58.31
2023-04-28T19:13:12.692Z,58.66
2023-04-28T19:15:40.900Z,58.41
2023-04-28T19:18:08.063Z,58.78
2023-04-28T19:20:35.731Z,58.74
2023-04-28T19:23:03.627Z,58.57
2023-04-28T19:25:33.364Z,58.80
2023-04-28T19:28:00.340Z,58.52
2023-04-28T19:30:27.460Z,58.55
2023-04-28T19:32:55.835Z,58.84
2023-04-28T19:35:23.315Z,58.56
2023-04-28T19:37:50.600Z,58.64
2023-04-28T19:40:17.774Z,58.79
2023-04-28T19:42:44.705Z,58.86
2023-04-28T19:45:11.961Z,59.21
2023-04-28T19:47:39.394Z,59.20
2023-04-28T19:50:10.199Z,59.33
2023-04-28T19:52:37.413Z,59.24
2023-04-28T19:55:04.982Z,59.43
2023-04-28T19:57:31.880Z,59.10
2023-04-28T19:59:58.874Z,59.08
2023-04-28T20:02:26.142Z,59.33
2023-04-28T20:04:53.228Z,59.43
2023-04-28T20:07:21.622Z,59.49
2023-04-28T20:09:48.783Z,59.58
2023-04-28T20:12:15.761Z,59.58
2023-04-28T20:14:42.634Z,59.38
2023-04-28T20:17:09.662Z,59.06
2023-04-28T20:19:36.844Z,59.03
2023-04-28T20:22:06.794Z,59.09
2023-04-28T20:24:36.909Z,59.24
2023-04-28T20:27:04.173Z,59.68
2023-04-28T20:29:34.750Z,59.72
2023-04-28T20:32:02.573Z,59.56
2023-04-28T20:34:30.167Z,59.46
2023-04-28T20:36:59.348Z,59.76
2023-04-28T20:39:26.576Z,59.47
2023-04-28T20:41:54.893Z,59.41
2023-04-28T20:44:22.113Z,59.40
2023-04-28T20:46:49.050Z,59.26
2023-04-28T20:49:16.449Z,59.26
2023-04-28T20:51:46.689Z,59.50
2023-04-28T20:54:14.414Z,59.60
2023-04-28T20:56:42.762Z,59.41
2023-04-28T20:59:11.175Z,59.36
2023-04-28T21:01:38.047Z,59.53
2023-04-28T21:04:05.321Z,59.33
2023-04-28T21:06:32.690Z,59.55
2023-04-28T21:08:59.603Z,59.42
2023-04-28T21:11:27.021Z,59.02
2023-04-28T21:13:54.071Z,59.24
2023-04-28T21:16:22.425Z,59.44
2023-04-28T21:18:50.333Z,59.23
2023-04-28T21:21:17.338Z,58.97
2023-04-28T21:23:45.497Z,59.22
2023-04-28T21:26:12.626Z,59.14
2023-04-28T21:28:40.124Z,58.61
2023-04-28T21:31:07.519Z,58.81
2023-04-28T21:33:35.802Z,58.61
2023-04-28T21:36:07.207Z,58.36
2023-04-28T21:38:34.554Z,58.44
2023-04-28T21:41:02.661Z,58.40
2023-04-28T21:43:29.629Z,58.53
2023-04-28T21:45:56.603Z,58.36
2023-04-28T21:48:23.576Z,58.36
2023-04-28T21:50:51.852Z,58.18
2023-04-28T21:53:18.741Z,58.08
2023-04-28T21:55:45.739Z,58.22
2023-04-28T21:58:12.720Z,58.49
2023-04-28T22:00:44.217Z,58.32
2023-04-28T22:03:13.236Z,57.89
2023-04-28T22:05:41.146Z,57.95
2023-04-28T22:08:09.515Z,57.72
2023-04-28T22:10:36.844Z,57.96
2023-04-28T22:13:05.100Z,58.31
2023-04-28T22:15:32.811Z,58.11
2023-04-28T22:17:59.802Z,58.27
2023-04-28T22:20:27.148Z,58.18
2023-04-28T22:22:54.418Z,58.45
2023-04-28T22:25:22.843Z,58.13
2023-04-28T22:27:49.757Z,58.08
2023-04-28T22:30:16.983Z,57.92
2023-04-28T22:32:44.660Z,57.89
2023-04-28T22:35:12.621Z,58.17
2023-04-28T22:37:40.027Z,57.93
2023-04-28T22:40:09.022Z,58.30
2023-04-28T22:42:38.119Z,58.30
2023-04-28T22:45:06.676Z,58.13
2023-04-28T22:47:34.166Z,58.55
2023-04-28T22:50:03.806Z,58.32
2023-04-28T22:52:30.718Z,58.40
2023-04-28T22:54:57.618Z,58.66
2023-04-28T22:57:24.640Z,58.66
2023-04-28T22:59:53.412Z,58.73
2023-04-28T23:02:20.890Z,58.61
2023-04-28T23:04:48.176Z,58.43
2023-04-28T23:07:15.226Z,58.32
2023-04-28T23:09:42.180Z,58.51
2023-04-28T23:12:09.071Z,58.46
2023-04-28T23:14:36.055Z,58.20
2023-04-28T23:17:04.265Z,58.22
2023-04-28T23:19:31.613Z,58.32
2023-04-28T23:21:58.479Z,58.37
2023-04-28T23:24:27.497Z,58.30
2023-04-28T23:26:54.514Z,58.13
2023-04-28T23:29:21.382Z,58.13
2023-04-28T23:31:52.397Z,57.98
2023-04-28T23:34:21.301Z,57.71
2023-04-28T23:36:48.291Z,57.78
2023-04-28T23:39:15.503Z,57.93
2023-04-28T23:41:42.635Z,58.33
2023-04-28T23:44:09.730Z,58.10
2023-04-28T23:46:36.695Z,58.45
2023-04-28T23:49:03.798Z,58.07
2023-04-28T23:51:32.312Z,58.20
2023-04-28T23:53:59.353Z,58.09
2023-04-28T23:56:26.636Z,58.16
2023-04-28T23:58:53.588Z,58.12
